sensor_id;sensor_type;location;lat;lon;timestamp;P1;durP1;ratioP1;P2;durP2;ratioP2
46411;SDS011;32113;42.012;24.870;2023-12-22T00:01:05;5.45;;;2.38;;
46411;SDS011;32113;42.012;24.870;2023-12-22T00:03:30;4.40;;;2.63;;
46411;SDS011;32113;42.012;24.870;2023-12-22T00:05:56;4.20;;;2.45;;
46411;SDS011;32113;42.012;24.870;2023-12-22T00:08:21;4.78;;;2.65;;
46411;SDS011;32113;42.012;24.870;2023-12-22T00:10:48;3.63;;;2.58;;
46411;SDS011;32113;42.012;24.870;2023-12-22T00:13:14;4.50;;;2.17;;
46411;SDS011;32113;42.012;24.870;2023-12-22T00:15:39;5.50;;;2.22;;
46411;SDS011;32113;42.012;24.870;2023-12-22T00:18:05;4.10;;;2.35;;
46411;SDS011;32113;42.012;24.870;2023-12-22T00:20:31;4.45;;;2.60;;
46411;SDS011;32113;42.012;24.870;2023-12-22T00:22:56;5.07;;;2.53;;
46411;SDS011;32113;42.012;24.870;2023-12-22T00:25:22;5.60;;;2.55;;
46411;SDS011;32113;42.012;24.870;2023-12-22T00:27:47;8.00;;;2.35;;
46411;SDS011;32113;42.012;24.870;2023-12-22T00:30:13;3.33;;;1.83;;
46411;SDS011;32113;42.012;24.870;2023-12-22T00:32:39;7.53;;;1.92;;
46411;SDS011;32113;42.012;24.870;2023-12-22T00:35:04;3.63;;;1.90;;
46411;SDS011;32113;42.012;24.870;2023-12-22T00:37:30;3.88;;;1.65;;
46411;SDS011;32113;42.012;24.870;2023-12-22T00:39:55;6.30;;;2.58;;
46411;SDS011;32113;42.012;24.870;2023-12-22T00:42:21;5.25;;;2.13;;
46411;SDS011;32113;42.012;24.870;2023-12-22T00:44:46;2.97;;;2.20;;
46411;SDS011;32113;42.012;24.870;2023-12-22T00:47:11;3.67;;;2.10;;
46411;SDS011;32113;42.012;24.870;2023-12-22T00:49:37;3.17;;;2.08;;
46411;SDS011;32113;42.012;24.870;2023-12-22T00:52:03;3.28;;;1.98;;
46411;SDS011;32113;42.012;24.870;2023-12-22T00:54:28;2.60;;;1.83;;
46411;SDS011;32113;42.012;24.870;2023-12-22T00:56:56;3.40;;;2.10;;
46411;SDS011;32113;42.012;24.870;2023-12-22T00:59:22;2.92;;;2.00;;
46411;SDS011;32113;42.012;24.870;2023-12-22T01:01:48;3.05;;;1.63;;
46411;SDS011;32113;42.012;24.870;2023-12-22T01:04:14;4.65;;;2.10;;
46411;SDS011;32113;42.012;24.870;2023-12-22T01:06:39;4.28;;;2.13;;
46411;SDS011;32113;42.012;24.870;2023-12-22T01:09:05;5.05;;;2.80;;
46411;SDS011;32113;42.012;24.870;2023-12-22T01:11:31;9.63;;;4.55;;
46411;SDS011;32113;42.012;24.870;2023-12-22T01:13:56;18.73;;;9.85;;
46411;SDS011;32113;42.012;24.870;2023-12-22T01:16:22;17.65;;;8.73;;
46411;SDS011;32113;42.012;24.870;2023-12-22T01:18:48;17.20;;;8.52;;
46411;SDS011;32113;42.012;24.870;2023-12-22T01:21:15;15.10;;;8.05;;
46411;SDS011;32113;42.012;24.870;2023-12-22T01:23:41;21.15;;;9.25;;
46411;SDS011;32113;42.012;24.870;2023-12-22T01:26:06;12.30;;;7.90;;
46411;SDS011;32113;42.012;24.870;2023-12-22T01:28:33;16.42;;;8.00;;
46411;SDS011;32113;42.012;24.870;2023-12-22T01:30:59;17.30;;;7.85;;
46411;SDS011;32113;42.012;24.870;2023-12-22T01:33:24;13.90;;;7.63;;
46411;SDS011;32113;42.012;24.870;2023-12-22T01:35:49;7.85;;;4.07;;
46411;SDS011;32113;42.012;24.870;2023-12-22T01:38:15;3.70;;;2.38;;
46411;SDS011;32113;42.012;24.870;2023-12-22T01:40:40;4.10;;;2.40;;
46411;SDS011;32113;42.012;24.870;2023-12-22T01:43:06;3.65;;;2.35;;
46411;SDS011;32113;42.012;24.870;2023-12-22T01:45:31;5.28;;;3.33;;
46411;SDS011;32113;42.012;24.870;2023-12-22T01:47:56;5.93;;;4.00;;
46411;SDS011;32113;42.012;24.870;2023-12-22T01:50:22;7.32;;;4.13;;
46411;SDS011;32113;42.012;24.870;2023-12-22T01:52:48;4.32;;;2.67;;
46411;SDS011;32113;42.012;24.870;2023-12-22T01:55:14;7.13;;;4.05;;
46411;SDS011;32113;42.012;24.870;2023-12-22T02:00:08;7.43;;;3.92;;
46411;SDS011;32113;42.012;24.870;2023-12-22T02:02:34;6.03;;;3.42;;
46411;SDS011;32113;42.012;24.870;2023-12-22T02:05:00;4.63;;;2.35;;
46411;SDS011;32113;42.012;24.870;2023-12-22T02:07:26;7.07;;;4.10;;
46411;SDS011;32113;42.012;24.870;2023-12-22T02:09:52;5.90;;;2.92;;
46411;SDS011;32113;42.012;24.870;2023-12-22T02:12:18;5.78;;;3.20;;
46411;SDS011;32113;42.012;24.870;2023-12-22T02:14:43;5.78;;;3.30;;
46411;SDS011;32113;42.012;24.870;2023-12-22T02:20:10;6.18;;;3.08;;
46411;SDS011;32113;42.012;24.870;2023-12-22T02:22:36;10.60;;;7.15;;
46411;SDS011;32113;42.012;24.870;2023-12-22T02:25:02;18.60;;;8.38;;
46411;SDS011;32113;42.012;24.870;2023-12-22T02:30:23;19.48;;;10.10;;
46411;SDS011;32113;42.012;24.870;2023-12-22T02:32:48;15.27;;;8.10;;
46411;SDS011;32113;42.012;24.870;2023-12-22T02:37:49;14.20;;;7.28;;
46411;SDS011;32113;42.012;24.870;2023-12-22T02:40:16;13.63;;;6.65;;
46411;SDS011;32113;42.012;24.870;2023-12-22T02:42:42;7.63;;;5.05;;
46411;SDS011;32113;42.012;24.870;2023-12-22T02:45:15;8.77;;;5.40;;
46411;SDS011;32113;42.012;24.870;2023-12-22T02:47:42;12.50;;;6.55;;
46411;SDS011;32113;42.012;24.870;2023-12-22T02:50:09;15.27;;;8.68;;
46411;SDS011;32113;42.012;24.870;2023-12-22T02:52:37;18.55;;;6.65;;
46411;SDS011;32113;42.012;24.870;2023-12-22T02:55:02;15.98;;;9.20;;
46411;SDS011;32113;42.012;24.870;2023-12-22T02:57:28;16.77;;;8.68;;
46411;SDS011;32113;42.012;24.870;2023-12-22T02:59:54;15.25;;;8.98;;
46411;SDS011;32113;42.012;24.870;2023-12-22T03:02:19;26.65;;;14.82;;
46411;SDS011;32113;42.012;24.870;2023-12-22T03:04:45;29.38;;;16.13;;
46411;SDS011;32113;42.012;24.870;2023-12-22T03:07:13;22.92;;;13.68;;
46411;SDS011;32113;42.012;24.870;2023-12-22T03:09:39;18.17;;;11.43;;
46411;SDS011;32113;42.012;24.870;2023-12-22T03:12:05;18.10;;;10.30;;
46411;SDS011;32113;42.012;24.870;2023-12-22T03:14:32;17.90;;;10.75;;
46411;SDS011;32113;42.012;24.870;2023-12-22T03:17:01;20.50;;;10.35;;
46411;SDS011;32113;42.012;24.870;2023-12-22T03:19:28;18.20;;;10.85;;
46411;SDS011;32113;42.012;24.870;2023-12-22T03:21:54;21.77;;;10.27;;
46411;SDS011;32113;42.012;24.870;2023-12-22T03:24:19;23.27;;;11.00;;
46411;SDS011;32113;42.012;24.870;2023-12-22T03:26:45;17.52;;;10.25;;
46411;SDS011;32113;42.012;24.870;2023-12-22T03:29:11;20.50;;;10.65;;
46411;SDS011;32113;42.012;24.870;2023-12-22T03:31:37;21.25;;;10.68;;
46411;SDS011;32113;42.012;24.870;2023-12-22T03:34:02;29.27;;;11.60;;
46411;SDS011;32113;42.012;24.870;2023-12-22T03:36:28;19.50;;;10.40;;
46411;SDS011;32113;42.012;24.870;2023-12-22T03:38:53;17.00;;;10.18;;
46411;SDS011;32113;42.012;24.870;2023-12-22T03:41:18;16.58;;;9.93;;
46411;SDS011;32113;42.012;24.870;2023-12-22T03:43:44;18.10;;;9.70;;
46411;SDS011;32113;42.012;24.870;2023-12-22T03:46:09;19.27;;;9.68;;
46411;SDS011;32113;42.012;24.870;2023-12-22T03:48:35;16.02;;;8.55;;
46411;SDS011;32113;42.012;24.870;2023-12-22T03:51:00;18.80;;;8.35;;
46411;SDS011;32113;42.012;24.870;2023-12-22T03:53:26;10.57;;;4.68;;
46411;SDS011;32113;42.012;24.870;2023-12-22T03:55:51;7.18;;;3.20;;
46411;SDS011;32113;42.012;24.870;2023-12-22T03:58:16;4.20;;;2.53;;
46411;SDS011;32113;42.012;24.870;2023-12-22T04:00:42;3.10;;;1.85;;
46411;SDS011;32113;42.012;24.870;2023-12-22T04:03:07;2.72;;;2.03;;
46411;SDS011;32113;42.012;24.870;2023-12-22T04:05:33;2.75;;;1.92;;
46411;SDS011;32113;42.012;24.870;2023-12-22T04:07:58;5.60;;;2.10;;
46411;SDS011;32113;42.012;24.870;2023-12-22T04:10:23;3.30;;;2.17;;
46411;SDS011;32113;42.012;24.870;2023-12-22T04:12:49;4.50;;;2.00;;
46411;SDS011;32113;42.012;24.870;2023-12-22T04:15:14;5.05;;;2.72;;
46411;SDS011;32113;42.012;24.870;2023-12-22T04:17:39;4.45;;;1.98;;
46411;SDS011;32113;42.012;24.870;2023-12-22T04:20:06;4.07;;;2.22;;
46411;SDS011;32113;42.012;24.870;2023-12-22T04:22:32;3.85;;;2.38;;
46411;SDS011;32113;42.012;24.870;2023-12-22T04:24:58;5.28;;;2.00;;
46411;SDS011;32113;42.012;24.870;2023-12-22T04:27:23;3.28;;;1.90;;
46411;SDS011;32113;42.012;24.870;2023-12-22T04:29:49;2.80;;;1.92;;
46411;SDS011;32113;42.012;24.870;2023-12-22T04:32:14;4.50;;;2.25;;
46411;SDS011;32113;42.012;24.870;2023-12-22T04:34:39;4.28;;;1.65;;
46411;SDS011;32113;42.012;24.870;2023-12-22T04:37:05;3.03;;;1.67;;
46411;SDS011;32113;42.012;24.870;2023-12-22T04:39:30;5.43;;;2.10;;
46411;SDS011;32113;42.012;24.870;2023-12-22T04:41:56;5.65;;;2.45;;
46411;SDS011;32113;42.012;24.870;2023-12-22T04:44:21;3.33;;;2.00;;
46411;SDS011;32113;42.012;24.870;2023-12-22T04:46:46;3.00;;;2.00;;
46411;SDS011;32113;42.012;24.870;2023-12-22T04:49:12;3.50;;;2.53;;
46411;SDS011;32113;42.012;24.870;2023-12-22T04:51:37;7.30;;;3.05;;
46411;SDS011;32113;42.012;24.870;2023-12-22T04:54:03;3.55;;;2.28;;
46411;SDS011;32113;42.012;24.870;2023-12-22T04:56:28;17.95;;;8.27;;
46411;SDS011;32113;42.012;24.870;2023-12-22T04:58:53;17.52;;;10.25;;
46411;SDS011;32113;42.012;24.870;2023-12-22T05:01:19;21.63;;;12.23;;
46411;SDS011;32113;42.012;24.870;2023-12-22T05:03:44;29.67;;;15.43;;
46411;SDS011;32113;42.012;24.870;2023-12-22T05:06:10;26.92;;;13.77;;
46411;SDS011;32113;42.012;24.870;2023-12-22T05:08:35;30.83;;;15.27;;
46411;SDS011;32113;42.012;24.870;2023-12-22T05:11:01;33.85;;;16.25;;
46411;SDS011;32113;42.012;24.870;2023-12-22T05:13:26;33.38;;;15.27;;
46411;SDS011;32113;42.012;24.870;2023-12-22T05:15:52;28.95;;;15.23;;
46411;SDS011;32113;42.012;24.870;2023-12-22T05:18:17;27.98;;;15.60;;
46411;SDS011;32113;42.012;24.870;2023-12-22T05:20:42;33.75;;;15.05;;
46411;SDS011;32113;42.012;24.870;2023-12-22T05:23:08;26.75;;;14.20;;
46411;SDS011;32113;42.012;24.870;2023-12-22T05:25:34;31.30;;;15.18;;
46411;SDS011;32113;42.012;24.870;2023-12-22T05:27:59;29.42;;;13.27;;
46411;SDS011;32113;42.012;24.870;2023-12-22T05:30:25;26.77;;;12.85;;
46411;SDS011;32113;42.012;24.870;2023-12-22T05:32:50;11.50;;;5.93;;
46411;SDS011;32113;42.012;24.870;2023-12-22T05:35:15;4.30;;;2.65;;
46411;SDS011;32113;42.012;24.870;2023-12-22T05:37:41;5.90;;;2.67;;
46411;SDS011;32113;42.012;24.870;2023-12-22T05:40:06;7.10;;;4.03;;
46411;SDS011;32113;42.012;24.870;2023-12-22T05:42:32;12.73;;;5.88;;
46411;SDS011;32113;42.012;24.870;2023-12-22T05:44:58;12.32;;;6.22;;
46411;SDS011;32113;42.012;24.870;2023-12-22T05:47:23;15.25;;;5.70;;
46411;SDS011;32113;42.012;24.870;2023-12-22T05:49:49;10.10;;;5.40;;
46411;SDS011;32113;42.012;24.870;2023-12-22T05:52:14;8.88;;;3.75;;
46411;SDS011;32113;42.012;24.870;2023-12-22T05:54:40;6.70;;;3.45;;
46411;SDS011;32113;42.012;24.870;2023-12-22T05:57:05;14.10;;;4.07;;
46411;SDS011;32113;42.012;24.870;2023-12-22T05:59:31;5.38;;;3.25;;
46411;SDS011;32113;42.012;24.870;2023-12-22T06:01:57;5.22;;;2.72;;
46411;SDS011;32113;42.012;24.870;2023-12-22T06:04:27;6.65;;;2.65;;
46411;SDS011;32113;42.012;24.870;2023-12-22T06:06:53;8.45;;;2.30;;
46411;SDS011;32113;42.012;24.870;2023-12-22T06:09:18;6.85;;;3.00;;
46411;SDS011;32113;42.012;24.870;2023-12-22T06:11:45;7.88;;;4.70;;
46411;SDS011;32113;42.012;24.870;2023-12-22T06:14:11;8.27;;;3.97;;
46411;SDS011;32113;42.012;24.870;2023-12-22T06:16:36;7.60;;;3.75;;
46411;SDS011;32113;42.012;24.870;2023-12-22T06:19:02;34.53;;;12.68;;
46411;SDS011;32113;42.012;24.870;2023-12-22T06:21:28;34.10;;;13.63;;
46411;SDS011;32113;42.012;24.870;2023-12-22T06:23:53;37.13;;;16.30;;
46411;SDS011;32113;42.012;24.870;2023-12-22T06:26:19;32.95;;;16.25;;
46411;SDS011;32113;42.012;24.870;2023-12-22T06:28:44;31.88;;;13.13;;
46411;SDS011;32113;42.012;24.870;2023-12-22T06:31:16;31.98;;;15.18;;
46411;SDS011;32113;42.012;24.870;2023-12-22T06:33:46;41.63;;;19.55;;
46411;SDS011;32113;42.012;24.870;2023-12-22T06:38:48;55.88;;;25.85;;
46411;SDS011;32113;42.012;24.870;2023-12-22T06:41:26;68.82;;;24.75;;
46411;SDS011;32113;42.012;24.870;2023-12-22T06:43:56;48.15;;;21.77;;
46411;SDS011;32113;42.012;24.870;2023-12-22T06:46:24;42.40;;;21.13;;
46411;SDS011;32113;42.012;24.870;2023-12-22T06:48:51;36.75;;;18.50;;
46411;SDS011;32113;42.012;24.870;2023-12-22T06:51:23;52.38;;;21.90;;
46411;SDS011;32113;42.012;24.870;2023-12-22T06:53:51;38.28;;;20.33;;
46411;SDS011;32113;42.012;24.870;2023-12-22T06:58:42;55.17;;;23.65;;
46411;SDS011;32113;42.012;24.870;2023-12-22T07:01:07;47.30;;;22.40;;
46411;SDS011;32113;42.012;24.870;2023-12-22T07:03:33;45.47;;;21.58;;
46411;SDS011;32113;42.012;24.870;2023-12-22T07:05:59;50.03;;;21.77;;
46411;SDS011;32113;42.012;24.870;2023-12-22T07:08:25;54.13;;;24.45;;
46411;SDS011;32113;42.012;24.870;2023-12-22T07:10:50;46.88;;;22.95;;
46411;SDS011;32113;42.012;24.870;2023-12-22T07:13:15;47.60;;;23.92;;
46411;SDS011;32113;42.012;24.870;2023-12-22T07:15:41;53.13;;;23.73;;
46411;SDS011;32113;42.012;24.870;2023-12-22T07:18:06;52.85;;;25.35;;
46411;SDS011;32113;42.012;24.870;2023-12-22T07:20:31;74.35;;;28.25;;
46411;SDS011;32113;42.012;24.870;2023-12-22T07:22:57;75.00;;;32.45;;
46411;SDS011;32113;42.012;24.870;2023-12-22T07:25:22;62.60;;;29.02;;
46411;SDS011;32113;42.012;24.870;2023-12-22T07:27:48;52.42;;;25.30;;
46411;SDS011;32113;42.012;24.870;2023-12-22T07:30:13;43.47;;;24.17;;
46411;SDS011;32113;42.012;24.870;2023-12-22T07:32:41;52.03;;;23.52;;
46411;SDS011;32113;42.012;24.870;2023-12-22T07:35:09;47.20;;;25.08;;
46411;SDS011;32113;42.012;24.870;2023-12-22T07:37:35;48.40;;;25.45;;
46411;SDS011;32113;42.012;24.870;2023-12-22T07:40:00;48.03;;;24.20;;
46411;SDS011;32113;42.012;24.870;2023-12-22T07:42:26;48.40;;;23.95;;
46411;SDS011;32113;42.012;24.870;2023-12-22T07:44:51;54.92;;;24.98;;
46411;SDS011;32113;42.012;24.870;2023-12-22T07:47:16;57.35;;;25.88;;
46411;SDS011;32113;42.012;24.870;2023-12-22T07:49:42;60.40;;;27.77;;
46411;SDS011;32113;42.012;24.870;2023-12-22T07:52:07;61.83;;;27.52;;
46411;SDS011;32113;42.012;24.870;2023-12-22T07:54:33;61.10;;;27.13;;
46411;SDS011;32113;42.012;24.870;2023-12-22T07:56:58;52.47;;;27.30;;
46411;SDS011;32113;42.012;24.870;2023-12-22T07:59:23;67.10;;;30.00;;
46411;SDS011;32113;42.012;24.870;2023-12-22T08:01:49;55.38;;;28.55;;
46411;SDS011;32113;42.012;24.870;2023-12-22T08:04:15;60.33;;;31.63;;
46411;SDS011;32113;42.012;24.870;2023-12-22T08:06:40;69.07;;;32.08;;
46411;SDS011;32113;42.012;24.870;2023-12-22T08:09:05;62.67;;;31.83;;
46411;SDS011;32113;42.012;24.870;2023-12-22T08:11:31;77.63;;;30.52;;
46411;SDS011;32113;42.012;24.870;2023-12-22T08:13:56;48.55;;;25.23;;
46411;SDS011;32113;42.012;24.870;2023-12-22T08:16:22;52.22;;;28.52;;
46411;SDS011;32113;42.012;24.870;2023-12-22T08:18:47;46.22;;;21.13;;
46411;SDS011;32113;42.012;24.870;2023-12-22T08:21:13;26.52;;;9.77;;
46411;SDS011;32113;42.012;24.870;2023-12-22T08:23:39;8.82;;;4.75;;
46411;SDS011;32113;42.012;24.870;2023-12-22T08:26:04;8.00;;;4.57;;
46411;SDS011;32113;42.012;24.870;2023-12-22T08:28:29;10.90;;;5.18;;
46411;SDS011;32113;42.012;24.870;2023-12-22T08:30:55;10.32;;;3.30;;
46411;SDS011;32113;42.012;24.870;2023-12-22T08:33:20;5.63;;;3.03;;
46411;SDS011;32113;42.012;24.870;2023-12-22T08:35:45;6.25;;;2.85;;
46411;SDS011;32113;42.012;24.870;2023-12-22T08:38:11;4.90;;;2.60;;
46411;SDS011;32113;42.012;24.870;2023-12-22T08:40:38;6.30;;;3.03;;
46411;SDS011;32113;42.012;24.870;2023-12-22T08:43:03;6.82;;;2.50;;
46411;SDS011;32113;42.012;24.870;2023-12-22T08:45:31;4.78;;;2.50;;
46411;SDS011;32113;42.012;24.870;2023-12-22T08:47:57;9.45;;;3.40;;
46411;SDS011;32113;42.012;24.870;2023-12-22T08:50:22;5.05;;;2.80;;
46411;SDS011;32113;42.012;24.870;2023-12-22T08:52:48;8.05;;;3.25;;
46411;SDS011;32113;42.012;24.870;2023-12-22T08:55:13;41.00;;;15.73;;
46411;SDS011;32113;42.012;24.870;2023-12-22T08:57:42;41.97;;;19.70;;
46411;SDS011;32113;42.012;24.870;2023-12-22T09:00:07;43.13;;;17.48;;
46411;SDS011;32113;42.012;24.870;2023-12-22T09:02:33;36.80;;;16.45;;
46411;SDS011;32113;42.012;24.870;2023-12-22T09:04:58;32.10;;;16.33;;
46411;SDS011;32113;42.012;24.870;2023-12-22T09:07:24;39.67;;;14.85;;
46411;SDS011;32113;42.012;24.870;2023-12-22T09:09:49;29.55;;;15.05;;
46411;SDS011;32113;42.012;24.870;2023-12-22T09:12:15;36.53;;;15.70;;
46411;SDS011;32113;42.012;24.870;2023-12-22T09:14:41;38.33;;;16.48;;
46411;SDS011;32113;42.012;24.870;2023-12-22T09:17:06;40.40;;;19.15;;
46411;SDS011;32113;42.012;24.870;2023-12-22T09:19:32;43.40;;;18.15;;
46411;SDS011;32113;42.012;24.870;2023-12-22T09:21:59;42.53;;;19.27;;
46411;SDS011;32113;42.012;24.870;2023-12-22T09:24:24;41.20;;;19.73;;
46411;SDS011;32113;42.012;24.870;2023-12-22T09:26:49;44.33;;;20.27;;
46411;SDS011;32113;42.012;24.870;2023-12-22T09:29:16;46.72;;;22.33;;
46411;SDS011;32113;42.012;24.870;2023-12-22T09:31:42;45.90;;;22.58;;
46411;SDS011;32113;42.012;24.870;2023-12-22T09:34:07;46.85;;;21.40;;
46411;SDS011;32113;42.012;24.870;2023-12-22T09:36:33;43.00;;;20.52;;
46411;SDS011;32113;42.012;24.870;2023-12-22T09:38:58;47.38;;;20.92;;
46411;SDS011;32113;42.012;24.870;2023-12-22T09:41:24;43.97;;;18.88;;
46411;SDS011;32113;42.012;24.870;2023-12-22T09:43:49;43.00;;;20.10;;
46411;SDS011;32113;42.012;24.870;2023-12-22T09:46:18;44.00;;;20.95;;
46411;SDS011;32113;42.012;24.870;2023-12-22T09:48:46;45.05;;;22.02;;
46411;SDS011;32113;42.012;24.870;2023-12-22T09:51:13;46.53;;;23.95;;
46411;SDS011;32113;42.012;24.870;2023-12-22T09:53:42;48.65;;;23.98;;
46411;SDS011;32113;42.012;24.870;2023-12-22T09:56:09;48.05;;;24.13;;
46411;SDS011;32113;42.012;24.870;2023-12-22T09:58:35;43.05;;;22.05;;
46411;SDS011;32113;42.012;24.870;2023-12-22T10:01:02;49.10;;;23.67;;
46411;SDS011;32113;42.012;24.870;2023-12-22T10:03:30;53.83;;;24.17;;
46411;SDS011;32113;42.012;24.870;2023-12-22T10:05:58;51.75;;;29.48;;
46411;SDS011;32113;42.012;24.870;2023-12-22T10:08:25;58.97;;;30.60;;
46411;SDS011;32113;42.012;24.870;2023-12-22T10:10:51;62.10;;;34.72;;
46411;SDS011;32113;42.012;24.870;2023-12-22T10:13:17;64.32;;;35.85;;
46411;SDS011;32113;42.012;24.870;2023-12-22T10:15:43;61.83;;;34.47;;
46411;SDS011;32113;42.012;24.870;2023-12-22T10:18:09;66.05;;;33.83;;
46411;SDS011;32113;42.012;24.870;2023-12-22T10:20:35;54.08;;;27.48;;
46411;SDS011;32113;42.012;24.870;2023-12-22T10:23:01;57.17;;;29.92;;
46411;SDS011;32113;42.012;24.870;2023-12-22T10:25:29;48.17;;;28.73;;
46411;SDS011;32113;42.012;24.870;2023-12-22T10:27:55;52.08;;;32.90;;
46411;SDS011;32113;42.012;24.870;2023-12-22T10:30:21;52.72;;;29.40;;
46411;SDS011;32113;42.012;24.870;2023-12-22T10:32:49;52.03;;;29.33;;
46411;SDS011;32113;42.012;24.870;2023-12-22T10:35:16;49.33;;;27.95;;
46411;SDS011;32113;42.012;24.870;2023-12-22T10:37:41;38.40;;;24.73;;
46411;SDS011;32113;42.012;24.870;2023-12-22T10:40:08;41.08;;;21.88;;
46411;SDS011;32113;42.012;24.870;2023-12-22T10:42:34;44.95;;;26.73;;
46411;SDS011;32113;42.012;24.870;2023-12-22T10:45:00;43.95;;;25.85;;
46411;SDS011;32113;42.012;24.870;2023-12-22T10:47:26;29.15;;;17.00;;
46411;SDS011;32113;42.012;24.870;2023-12-22T10:49:53;28.65;;;19.15;;
46411;SDS011;32113;42.012;24.870;2023-12-22T10:52:18;11.82;;;4.88;;
46411;SDS011;32113;42.012;24.870;2023-12-22T10:54:45;3.50;;;1.83;;
46411;SDS011;32113;42.012;24.870;2023-12-22T10:57:11;3.40;;;1.73;;
46411;SDS011;32113;42.012;24.870;2023-12-22T10:59:38;3.33;;;1.50;;
46411;SDS011;32113;42.012;24.870;2023-12-22T11:02:11;2.60;;;1.80;;
46411;SDS011;32113;42.012;24.870;2023-12-22T11:04:41;4.35;;;1.70;;
46411;SDS011;32113;42.012;24.870;2023-12-22T11:07:30;2.15;;;1.30;;
46411;SDS011;32113;42.012;24.870;2023-12-22T11:09:59;2.63;;;1.00;;
46411;SDS011;32113;42.012;24.870;2023-12-22T11:12:31;1.88;;;1.10;;
46411;SDS011;32113;42.012;24.870;2023-12-22T11:15:01;1.90;;;1.00;;
46411;SDS011;32113;42.012;24.870;2023-12-22T11:17:28;3.13;;;1.50;;
46411;SDS011;32113;42.012;24.870;2023-12-22T11:19:54;3.90;;;1.40;;
46411;SDS011;32113;42.012;24.870;2023-12-22T11:22:21;2.45;;;1.40;;
46411;SDS011;32113;42.012;24.870;2023-12-22T11:24:47;1.75;;;1.33;;
46411;SDS011;32113;42.012;24.870;2023-12-22T11:27:20;2.75;;;0.80;;
46411;SDS011;32113;42.012;24.870;2023-12-22T11:29:49;2.38;;;0.90;;
46411;SDS011;32113;42.012;24.870;2023-12-22T11:32:16;1.70;;;0.90;;
46411;SDS011;32113;42.012;24.870;2023-12-22T11:34:42;3.33;;;2.05;;
46411;SDS011;32113;42.012;24.870;2023-12-22T11:37:11;2.28;;;1.10;;
46411;SDS011;32113;42.012;24.870;2023-12-22T11:39:37;2.38;;;1.45;;
46411;SDS011;32113;42.012;24.870;2023-12-22T11:42:04;2.00;;;1.35;;
46411;SDS011;32113;42.012;24.870;2023-12-22T11:44:32;3.58;;;3.05;;
46411;SDS011;32113;42.012;24.870;2023-12-22T11:47:07;1.95;;;1.08;;
46411;SDS011;32113;42.012;24.870;2023-12-22T11:49:34;1.45;;;0.90;;
46411;SDS011;32113;42.012;24.870;2023-12-22T11:52:14;3.92;;;2.30;;
46411;SDS011;32113;42.012;24.870;2023-12-22T11:54:53;4.68;;;1.55;;
46411;SDS011;32113;42.012;24.870;2023-12-22T11:57:29;2.40;;;1.40;;
46411;SDS011;32113;42.012;24.870;2023-12-22T12:00:08;2.22;;;1.67;;
46411;SDS011;32113;42.012;24.870;2023-12-22T12:03:01;2.67;;;1.80;;
46411;SDS011;32113;42.012;24.870;2023-12-22T12:05:31;4.68;;;3.13;;
46411;SDS011;32113;42.012;24.870;2023-12-22T12:08:01;3.72;;;2.03;;
46411;SDS011;32113;42.012;24.870;2023-12-22T12:13:07;3.95;;;2.10;;
46411;SDS011;32113;42.012;24.870;2023-12-22T12:15:36;4.80;;;2.92;;
46411;SDS011;32113;42.012;24.870;2023-12-22T12:18:02;6.03;;;3.22;;
46411;SDS011;32113;42.012;24.870;2023-12-22T12:20:29;7.85;;;3.72;;
46411;SDS011;32113;42.012;24.870;2023-12-22T12:22:55;4.88;;;3.03;;
46411;SDS011;32113;42.012;24.870;2023-12-22T12:25:25;3.08;;;1.88;;
46411;SDS011;32113;42.012;24.870;2023-12-22T12:28:03;2.15;;;1.70;;
46411;SDS011;32113;42.012;24.870;2023-12-22T12:30:30;2.08;;;1.40;;
46411;SDS011;32113;42.012;24.870;2023-12-22T12:32:58;3.88;;;2.05;;
46411;SDS011;32113;42.012;24.870;2023-12-22T12:35:30;2.10;;;1.20;;
46411;SDS011;32113;42.012;24.870;2023-12-22T12:37:57;1.35;;;0.73;;
46411;SDS011;32113;42.012;24.870;2023-12-22T12:40:24;3.35;;;1.65;;
46411;SDS011;32113;42.012;24.870;2023-12-22T12:42:50;2.72;;;1.40;;
46411;SDS011;32113;42.012;24.870;2023-12-22T12:45:19;2.22;;;1.33;;
46411;SDS011;32113;42.012;24.870;2023-12-22T12:48:00;3.22;;;2.30;;
46411;SDS011;32113;42.012;24.870;2023-12-22T12:50:27;3.67;;;2.05;;
46411;SDS011;32113;42.012;24.870;2023-12-22T12:52:53;4.07;;;2.25;;
46411;SDS011;32113;42.012;24.870;2023-12-22T12:55:23;8.95;;;4.00;;
46411;SDS011;32113;42.012;24.870;2023-12-22T12:57:54;6.75;;;3.22;;
46411;SDS011;32113;42.012;24.870;2023-12-22T13:02:50;4.80;;;2.70;;
46411;SDS011;32113;42.012;24.870;2023-12-22T13:05:22;5.03;;;3.25;;
46411;SDS011;32113;42.012;24.870;2023-12-22T13:07:48;4.13;;;2.65;;
46411;SDS011;32113;42.012;24.870;2023-12-22T13:10:23;5.80;;;3.42;;
46411;SDS011;32113;42.012;24.870;2023-12-22T13:12:52;5.32;;;2.92;;
46411;SDS011;32113;42.012;24.870;2023-12-22T13:15:19;5.53;;;3.40;;
46411;SDS011;32113;42.012;24.870;2023-12-22T13:17:46;6.38;;;4.35;;
46411;SDS011;32113;42.012;24.870;2023-12-22T13:20:12;7.25;;;4.78;;
46411;SDS011;32113;42.012;24.870;2023-12-22T13:22:38;4.63;;;3.10;;
46411;SDS011;32113;42.012;24.870;2023-12-22T13:25:04;7.03;;;3.90;;
46411;SDS011;32113;42.012;24.870;2023-12-22T13:27:30;8.45;;;5.25;;
46411;SDS011;32113;42.012;24.870;2023-12-22T13:29:55;7.75;;;3.28;;
46411;SDS011;32113;42.012;24.870;2023-12-22T13:32:21;4.20;;;2.30;;
46411;SDS011;32113;42.012;24.870;2023-12-22T13:34:51;5.85;;;3.25;;
46411;SDS011;32113;42.012;24.870;2023-12-22T13:37:20;5.80;;;3.90;;
46411;SDS011;32113;42.012;24.870;2023-12-22T13:39:46;7.70;;;4.38;;
46411;SDS011;32113;42.012;24.870;2023-12-22T13:42:18;4.50;;;3.15;;
46411;SDS011;32113;42.012;24.870;2023-12-22T13:44:46;6.05;;;3.10;;
46411;SDS011;32113;42.012;24.870;2023-12-22T13:47:17;5.45;;;3.55;;
46411;SDS011;32113;42.012;24.870;2023-12-22T13:49:43;4.35;;;2.90;;
46411;SDS011;32113;42.012;24.870;2023-12-22T13:52:28;5.60;;;3.85;;
46411;SDS011;32113;42.012;24.870;2023-12-22T13:54:57;9.90;;;6.13;;
46411;SDS011;32113;42.012;24.870;2023-12-22T13:57:26;9.82;;;6.53;;
46411;SDS011;32113;42.012;24.870;2023-12-22T13:59:51;12.43;;;7.93;;
46411;SDS011;32113;42.012;24.870;2023-12-22T14:02:18;16.10;;;7.55;;
46411;SDS011;32113;42.012;24.870;2023-12-22T14:07:10;18.13;;;10.82;;
46411;SDS011;32113;42.012;24.870;2023-12-22T14:09:35;22.23;;;12.73;;
46411;SDS011;32113;42.012;24.870;2023-12-22T14:12:03;16.17;;;9.77;;
46411;SDS011;32113;42.012;24.870;2023-12-22T14:14:30;20.83;;;12.00;;
46411;SDS011;32113;42.012;24.870;2023-12-22T14:16:56;23.42;;;12.70;;
46411;SDS011;32113;42.012;24.870;2023-12-22T14:19:21;24.00;;;12.30;;
46411;SDS011;32113;42.012;24.870;2023-12-22T14:21:47;19.63;;;11.82;;
46411;SDS011;32113;42.012;24.870;2023-12-22T14:24:12;20.02;;;11.65;;
46411;SDS011;32113;42.012;24.870;2023-12-22T14:26:53;14.43;;;9.63;;
46411;SDS011;32113;42.012;24.870;2023-12-22T14:29:20;13.52;;;7.65;;
46411;SDS011;32113;42.012;24.870;2023-12-22T14:31:47;14.35;;;6.25;;
46411;SDS011;32113;42.012;24.870;2023-12-22T14:34:13;14.13;;;7.38;;
46411;SDS011;32113;42.012;24.870;2023-12-22T14:36:39;11.27;;;6.93;;
46411;SDS011;32113;42.012;24.870;2023-12-22T14:39:04;13.13;;;9.30;;
46411;SDS011;32113;42.012;24.870;2023-12-22T14:41:30;12.82;;;8.40;;
46411;SDS011;32113;42.012;24.870;2023-12-22T14:43:56;8.13;;;5.00;;